createdAt,value
2023-03-22T00:00:46.533Z,13.51
2023-03-22T00:03:12.913Z,13.49
2023-03-22T00:05:40.225Z,13.49
2023-03-22T00:08:07.206Z,13.45
2023-03-22T00:10:34.753Z,13.45
2023-03-22T00:13:01.109Z,13.44
2023-03-22T00:15:29.596Z,13.42
2023-03-22T00:17:59.101Z,13.43
2023-03-22T00:20:26.386Z,13.43
2023-03-22T00:22:52.775Z,13.41
2023-03-22T00:25:19.212Z,13.41
2023-03-22T00:27:45.646Z,13.42
2023-03-22T00:30:12.212Z,13.42
2023-03-22T00:32:39.079Z,13.42
2023-03-22T00:35:05.958Z,13.41
2023-03-22T00:37:34.399Z,13.41
2023-03-22T00:40:01.309Z,13.42
2023-03-22T00:42:27.652Z,13.42
2023-03-22T00:44:54.061Z,13.41
2023-03-22T00:47:20.464Z,13.43
2023-03-22T00:49:46.832Z,13.43
2023-03-22T00:52:13.218Z,13.45
2023-03-22T00:54:39.668Z,13.42
2023-03-22T00:57:06.098Z,13.45
2023-03-22T00:59:32.498Z,13.46
2023-03-22T01:01:59.122Z,13.44
2023-03-22T01:04:26.339Z,13.47
2023-03-22T01:06:59.221Z,13.47
2023-03-22T01:09:28.362Z,13.46
2023-03-22T01:11:56.306Z,13.48
2023-03-22T01:14:23.364Z,13.48
2023-03-22T01:16:50.321Z,13.48
2023-03-22T01:19:17.866Z,13.48
2023-03-22T01:21:44.249Z,13.49
2023-03-22T01:24:10.636Z,13.48
2023-03-22T01:26:37.727Z,13.47
2023-03-22T01:29:04.152Z,13.50
2023-03-22T01:31:30.631Z,13.47
2023-03-22T01:33:56.988Z,13.45
2023-03-22T01:36:23.377Z,13.46
2023-03-22T01:38:49.773Z,13.46
2023-03-22T01:41:16.804Z,13.45
2023-03-22T01:43:43.210Z,13.43
2023-03-22T01:46:09.664Z,13.43
2023-03-22T01:48:42.158Z,13.42
2023-03-22T01:51:10.567Z,13.42
2023-03-22T01:53:41.117Z,13.42
2023-03-22T01:56:07.910Z,13.42
2023-03-22T01:58:35.961Z,13.44
2023-03-22T02:01:03.896Z,13.43
2023-03-22T02:03:45.933Z,13.44
2023-03-22T02:06:12.384Z,13.45
2023-03-22T02:08:40.817Z,13.45
2023-03-22T02:11:07.630Z,13.47
2023-03-22T02:13:52.736Z,13.47
2023-03-22T02:16:29.809Z,13.49
2023-03-22T02:19:15.304Z,13.44
2023-03-22T02:22:00.181Z,13.51
2023-03-22T02:24:46.300Z,13.53
2023-03-22T02:27:41.968Z,13.51
2023-03-22T02:30:11.585Z,13.52
2023-03-22T02:32:37.945Z,13.51
2023-03-22T02:35:07.394Z,13.52
2023-03-22T02:37:33.829Z,13.53
2023-03-22T02:40:10.689Z,13.54
2023-03-22T02:42:48.554Z,13.53
2023-03-22T02:45:18.097Z,13.52
2023-03-22T02:47:54.567Z,13.53
2023-03-22T02:50:40.165Z,13.53
2023-03-22T02:53:09.817Z,13.51
2023-03-22T02:55:48.916Z,13.53
2023-03-22T02:58:18.075Z,13.51
2023-03-22T03:00:46.544Z,13.52
2023-03-22T03:03:18.227Z,13.54
2023-03-22T03:05:51.031Z,13.55
2023-03-22T03:08:18.086Z,13.44
2023-03-22T03:10:45.141Z,13.54
2023-03-22T03:13:15.821Z,13.55
2023-03-22T03:15:43.920Z,13.56
2023-03-22T03:18:26.395Z,13.57
2023-03-22T03:21:04.534Z,13.58
2023-03-22T03:23:39.972Z,13.60
2023-03-22T03:26:20.216Z,13.57
2023-03-22T03:28:52.282Z,13.57
2023-03-22T03:31:28.487Z,13.61
2023-03-22T03:33:59.706Z,13.63
2023-03-22T03:36:26.822Z,13.65
2023-03-22T03:38:54.647Z,13.65
2023-03-22T03:41:23.691Z,13.66
2023-03-22T03:43:51.373Z,13.67
2023-03-22T03:46:17.866Z,13.67
2023-03-22T03:48:47.778Z,13.68
2023-03-22T03:51:14.155Z,13.69
2023-03-22T03:53:40.509Z,13.70
2023-03-22T03:56:07.199Z,13.67
2023-03-22T03:58:33.555Z,13.67
2023-03-22T04:00:59.965Z,13.68
2023-03-22T04:03:26.348Z,13.69
2023-03-22T04:05:52.958Z,13.70
2023-03-22T04:08:19.385Z,13.70
2023-03-22T04:10:49.474Z,13.70
2023-03-22T04:13:15.880Z,13.69
2023-03-22T04:15:42.371Z,13.69
2023-03-22T04:18:11.300Z,13.72
2023-03-22T04:20:41.801Z,13.70
2023-03-22T04:23:11.075Z,13.70
2023-03-22T04:25:38.074Z,13.71
2023-03-22T04:28:04.970Z,13.68
2023-03-22T04:30:36.441Z,13.67
2023-03-22T04:33:08.740Z,13.68
2023-03-22T04:35:35.423Z,13.69
2023-03-22T04:38:02.200Z,13.70
2023-03-22T04:40:31.707Z,13.66
2023-03-22T04:42:58.971Z,13.68
2023-03-22T04:45:29.346Z,13.67
2023-03-22T04:47:56.284Z,13.66
2023-03-22T04:50:22.952Z,13.67
2023-03-22T04:52:50.052Z,13.67
2023-03-22T04:55:16.739Z,13.67
2023-03-22T04:57:43.244Z,13.66
2023-03-22T05:00:10.060Z,13.66
2023-03-22T05:02:41.076Z,13.66
2023-03-22T05:05:07.822Z,13.67
2023-03-22T05:07:34.240Z,13.66
2023-03-22T05:10:00.685Z,13.66
2023-03-22T05:12:27.130Z,13.66
2023-03-22T05:14:53.542Z,13.64
2023-03-22T05:17:20.094Z,13.65
2023-03-22T05:19:46.568Z,13.64
2023-03-22T05:22:14.016Z,13.65
2023-03-22T05:24:40.860Z,13.64
2023-03-22T05:27:07.313Z,13.65
2023-03-22T05:29:37.068Z,13.64
2023-03-22T05:32:04.140Z,13.66
2023-03-22T05:34:35.677Z,13.66
2023-03-22T05:37:02.697Z,13.67
2023-03-22T05:39:29.154Z,13.68
2023-03-22T05:41:55.805Z,13.70
2023-03-22T05:44:22.189Z,13.69
2023-03-22T05:46:48.686Z,13.71
2023-03-22T05:49:15.436Z,13.70
2023-03-22T05:51:42.712Z,13.71
2023-03-22T05:54:09.733Z,13.70
2023-03-22T05:56:36.181Z,13.72
2023-03-22T05:59:03.322Z,13.73
2023-03-22T06:01:29.659Z,13.75
2023-03-22T06:03:56.045Z,13.77
2023-03-22T06:06:22.381Z,13.78
2023-03-22T06:08:48.731Z,13.78
2023-03-22T06:11:15.502Z,13.79
2023-03-22T06:13:41.947Z,13.80
2023-03-22T06:16:08.457Z,13.81
2023-03-22T06:18:34.903Z,13.82
2023-03-22T06:21:01.566Z,13.83
2023-03-22T06:23:28.155Z,13.86
2023-03-22T06:25:54.855Z,13.82
2023-03-22T06:28:21.586Z,13.86
2023-03-22T06:30:48.220Z,13.86
2023-03-22T06:33:14.715Z,13.91
2023-03-22T06:35:41.229Z,13.92
2023-03-22T06:38:07.765Z,13.91
2023-03-22T06:40:35.805Z,13.99
2023-03-22T06:43:05.659Z,14.00
2023-03-22T06:45:33.606Z,14.05
2023-03-22T06:48:01.019Z,14.07
2023-03-22T06:50:28.215Z,14.09
2023-03-22T06:52:55.000Z,14.11
2023-03-22T06:55:21.426Z,14.13
2023-03-22T06:57:47.771Z,14.13
2023-03-22T07:00:14.459Z,14.11
2023-03-22T07:02:41.007Z,14.18
2023-03-22T07:05:07.591Z,14.16
2023-03-22T07:07:33.931Z,14.21
2023-03-22T07:10:00.427Z,14.22
2023-03-22T07:12:26.777Z,14.25
2023-03-22T07:14:53.283Z,14.24
2023-03-22T07:17:19.638Z,14.27
2023-03-22T07:19:46.032Z,14.30
2023-03-22T07:22:12.432Z,14.31
2023-03-22T07:24:50.326Z,14.31
2023-03-22T07:27:22.424Z,14.34
2023-03-22T07:29:48.798Z,14.36
2023-03-22T07:32:16.453Z,14.41
2023-03-22T07:34:42.994Z,14.41
2023-03-22T07:37:09.577Z,14.46
2023-03-22T07:39:36.037Z,14.47
2023-03-22T07:42:02.819Z,14.56
2023-03-22T07:44:29.419Z,14.60
2023-03-22T07:46:56.382Z,14.66
2023-03-22T07:49:22.773Z,14.71
2023-03-22T07:51:49.138Z,14.78
2023-03-22T07:54:30.612Z,14.87
2023-03-22T07:56:59.398Z,14.96
2023-03-22T07:59:25.998Z,15.04
2023-03-22T08:01:52.507Z,15.13
2023-03-22T08:04:20.964Z,15.23
2023-03-22T08:06:47.382Z,15.32
2023-03-22T08:09:13.935Z,15.37
2023-03-22T08:11:40.530Z,15.44
2023-03-22T08:14:06.971Z,15.53
2023-03-22T08:16:33.621Z,15.58
2023-03-22T08:19:00.805Z,15.66
2023-03-22T08:21:27.480Z,15.72
2023-03-22T08:23:53.909Z,15.80
2023-03-22T08:26:20.432Z,15.82
2023-03-22T08:28:46.851Z,15.84
2023-03-22T08:31:15.321Z,15.92
2023-03-22T08:33:42.385Z,15.97
2023-03-22T08:36:10.442Z,15.94
2023-03-22T08:38:37.229Z,16.04
2023-03-22T08:41:03.703Z,16.06
2023-03-22T08:43:30.218Z,16.13
2023-03-22T08:45:57.179Z,16.19
2023-03-22T08:48:23.749Z,16.25
2023-03-22T08:50:50.487Z,16.30
2023-03-22T08:53:16.951Z,16.37
2023-03-22T08:55:44.976Z,16.41
2023-03-22T08:58:14.966Z,16.48
2023-03-22T09:00:48.752Z,16.57
2023-03-22T09:03:16.309Z,16.60
2023-03-22T09:05:42.916Z,16.67
2023-03-22T09:08:18.173Z,16.71
2023-03-22T09:10:47.975Z,16.78
2023-03-22T09:13:16.632Z,16.77
2023-03-22T09:15:44.110Z,16.83
2023-03-22T09:18:11.787Z,16.86
2023-03-22T09:20:38.853Z,16.88
2023-03-22T09:23:05.879Z,16.88
2023-03-22T09:25:32.459Z,16.95
2023-03-22T09:27:58.915Z,16.99
2023-03-22T09:30:25.332Z,17.03
2023-03-22T09:32:51.860Z,17.06
2023-03-22T09:35:18.610Z,17.10
2023-03-22T09:37:45.668Z,17.12
2023-03-22T09:40:12.335Z,17.16
2023-03-22T09:42:42.296Z,17.20
2023-03-22T09:45:13.458Z,17.23
2023-03-22T09:47:45.056Z,17.28
2023-03-22T09:50:18.804Z,17.30
2023-03-22T09:52:45.298Z,17.35
2023-03-22T09:55:38.465Z,17.34
2023-03-22T09:58:19.882Z,17.43
2023-03-22T10:00:49.301Z,17.49
2023-03-22T10:03:25.909Z,17.47
2023-03-22T10:05:55.458Z,17.53
2023-03-22T10:08:24.856Z,17.57
2023-03-22T10:10:52.724Z,17.63
2023-03-22T10:13:39.918Z,17.63
2023-03-22T10:16:23.916Z,17.67
2023-03-22T10:18:52.070Z,17.73
2023-03-22T10:21:19.459Z,17.78
2023-03-22T10:23:51.907Z,17.82
2023-03-22T10:26:20.092Z,17.84
2023-03-22T10:28:49.701Z,17.91
2023-03-22T10:31:17.980Z,17.94
2023-03-22T10:33:58.781Z,18.01
2023-03-22T10:36:31.234Z,18.04
2023-03-22T10:39:00.779Z,18.13
2023-03-22T10:41:28.583Z,18.17
2023-03-22T10:43:57.308Z,18.29
2023-03-22T10:46:25.715Z,18.35
2023-03-22T10:48:57.155Z,18.46
2023-03-22T10:51:34.263Z,18.53
2023-03-22T10:54:02.270Z,18.65
2023-03-22T10:56:28.851Z,18.75
2023-03-22T10:58:57.216Z,18.82
2023-03-22T11:01:26.705Z,18.96
2023-03-22T11:03:56.422Z,19.03
2023-03-22T11:06:24.271Z,19.17
2023-03-22T11:08:54.606Z,19.26
2023-03-22T11:11:25.669Z,19.35
2023-03-22T11:13:59.015Z,19.43
2023-03-22T11:16:25.819Z,19.49
2023-03-22T11:18:52.293Z,19.55
2023-03-22T11:21:31.683Z,19.62
2023-03-22T11:24:03.732Z,19.70
2023-03-22T11:26:37.285Z,19.74
2023-03-22T11:29:11.858Z,19.73
2023-03-22T11:31:50.747Z,19.75
2023-03-22T11:34:19.242Z,19.76
2023-03-22T11:39:33.864Z,19.78
2023-03-22T11:42:03.761Z,19.67
2023-03-22T11:44:34.013Z,19.60
2023-03-22T11:47:01.414Z,19.70
2023-03-22T11:49:35.493Z,19.66
2023-03-22T11:52:07.724Z,19.68
2023-03-22T11:54:35.757Z,19.67
2023-03-22T11:57:09.680Z,19.62
2023-03-22T11:59:37.699Z,19.66
2023-03-22T12:02:09.624Z,19.65
2023-03-22T12:04:38.045Z,19.66
2023-03-22T12:07:06.842Z,19.63
2023-03-22T12:09:48.664Z,19.61
2023-03-22T12:12:21.661Z,19.66
2023-03-22T12:14:51.864Z,19.62
2023-03-22T12:17:37.701Z,19.58
2023-03-22T12:20:07.389Z,19.58
2023-03-22T12:22:45.821Z,19.55
2023-03-22T12:25:17.533Z,19.54
2023-03-22T12:27:47.399Z,19.57
2023-03-22T12:30:16.337Z,19.60
2023-03-22T12:32:49.020Z,19.64
2023-03-22T12:35:18.501Z,19.68
2023-03-22T12:37:47.595Z,19.73
2023-03-22T12:40:28.517Z,19.77
2023-03-22T12:43:01.256Z,19.75
2023-03-22T12:45:28.766Z,19.77
2023-03-22T12:48:16.225Z,19.78
2023-03-22T12:50:48.793Z,19.74
2023-03-22T12:53:16.468Z,19.76
2023-03-22T12:55:43.925Z,19.75
2023-03-22T12:58:12.945Z,19.72
2023-03-22T13:00:45.364Z,19.72
2023-03-22T13:03:18.216Z,19.67
2023-03-22T13:05:46.114Z,19.66
2023-03-22T13:08:13.068Z,19.58
2023-03-22T13:10:41.931Z,19.62
2023-03-22T13:13:08.719Z,19.59
2023-03-22T13:15:42.070Z,19.57
2023-03-22T13:18:27.487Z,19.45
2023-03-22T13:21:13.349Z,19.45
2023-03-22T13:23:53.430Z,19.39
2023-03-22T13:26:22.173Z,19.39
2023-03-22T13:28:59.154Z,19.38
2023-03-22T13:31:36.086Z,19.30
2023-03-22T13:34:04.534Z,19.28
2023-03-22T13:36:32.071Z,19.27
2023-03-22T13:39:00.066Z,19.27
2023-03-22T13:41:35.940Z,19.26
2023-03-22T13:44:19.067Z,19.25
2023-03-22T13:46:49.243Z,19.26
2023-03-22T13:49:20.765Z,19.28
2023-03-22T13:51:47.820Z,19.27
2023-03-22T13:54:14.973Z,19.28
2023-03-22T13:56:53.042Z,19.30
2023-03-22T13:59:33.953Z,19.31
2023-03-22T14:02:10.920Z,19.31
2023-03-22T14:04:41.070Z,19.33
2023-03-22T14:07:27.770Z,19.29
2023-03-22T14:10:02.613Z,19.28
2023-03-22T14:12:47.655Z,19.30
2023-03-22T14:15:18.926Z,19.29
2023-03-22T14:17:50.605Z,19.25
2023-03-22T14:20:19.245Z,19.27
